createdAt,value
2017-08-09T00:00:57.766Z,99.99
2017-08-09T00:02:07.619Z,99.99
2017-08-09T00:03:17.150Z,99.99
2017-08-09T00:04:26.360Z,99.99
2017-08-09T00:05:35.566Z,99.99
2017-08-09T00:06:44.928Z,99.99
2017-08-09T00:07:54.140Z,99.99
2017-08-09T00:09:03.351Z,99.99
2017-08-09T00:10:12.878Z,99.99
2017-08-09T00:11:21.760Z,99.99
2017-08-09T00:12:31.346Z,99.99
2017-08-09T00:13:41.516Z,99.99
2017-08-09T00:14:50.723Z,99.99
2017-08-09T00:16:00.576Z,99.99
2017-08-09T00:17:10.108Z,99.99
2017-08-09T00:18:19.145Z,99.99
2017-08-09T00:19:28.037Z,99.99
2017-08-09T00:20:37.243Z,99.99
2017-08-09T00:21:46.448Z,99.99
2017-08-09T00:22:55.977Z,99.99
2017-08-09T00:24:05.812Z,99.99
2017-08-09T00:25:15.347Z,99.99
2017-08-09T00:26:24.882Z,99.99
2017-08-09T00:27:34.731Z,99.99
2017-08-09T00:28:44.261Z,99.99
2017-08-09T00:29:53.149Z,99.99
2017-08-09T00:31:02.353Z,99.99
2017-08-09T00:32:11.882Z,99.99
2017-08-09T00:33:22.088Z,99.99
2017-08-09T00:34:30.969Z,99.99
2017-08-09T00:35:40.338Z,99.99
2017-08-09T00:36:49.545Z,99.99
2017-08-09T00:37:58.758Z,99.99
2017-08-09T00:39:08.283Z,99.99
2017-08-09T00:40:17.485Z,99.99
2017-08-09T00:41:26.469Z,99.99
2017-08-09T00:42:35.998Z,99.99
2017-08-09T00:43:45.526Z,99.99
2017-08-09T00:44:54.406Z,99.99
2017-08-09T00:46:03.610Z,99.99
2017-08-09T00:47:13.194Z,99.99
2017-08-09T00:48:23.044Z,99.99
2017-08-09T00:49:32.575Z,99.99
2017-08-09T00:50:42.108Z,99.99
2017-08-09T00:51:50.991Z,99.99
2017-08-09T00:53:00.120Z,99.99
2017-08-09T00:54:09.002Z,99.99
2017-08-09T00:55:17.896Z,99.99
2017-08-09T00:56:27.424Z,99.99
2017-08-09T00:57:36.312Z,99.99
2017-08-09T00:58:45.350Z,99.99
2017-08-09T00:59:54.561Z,99.99
2017-08-09T01:01:04.740Z,99.99
2017-08-09T01:02:14.270Z,99.99
2017-08-09T01:03:23.796Z,99.99
2017-08-09T01:04:33.629Z,99.99
2017-08-09T01:05:42.513Z,99.99
2017-08-09T01:06:51.395Z,99.99
2017-08-09T01:08:00.925Z,99.99
2017-08-09T01:09:10.132Z,99.99
2017-08-09T01:10:19.858Z,99.99
2017-08-09T01:11:28.738Z,99.99
2017-08-09T01:12:37.944Z,99.99
2017-08-09T01:13:47.474Z,99.99
2017-08-09T01:14:56.701Z,99.99
2017-08-09T01:16:06.378Z,99.99
2017-08-09T01:17:16.234Z,99.99
2017-08-09T01:18:25.442Z,99.99
2017-08-09T01:19:34.972Z,99.99
2017-08-09T01:20:43.854Z,99.99
2017-08-09T01:21:52.787Z,99.99
2017-08-09T01:23:01.988Z,99.99
2017-08-09T01:24:11.195Z,99.99
2017-08-09T01:25:21.049Z,99.99
2017-08-09T01:26:30.911Z,99.99
2017-08-09T01:27:40.113Z,99.99
2017-08-09T01:28:48.996Z,99.99
2017-08-09T01:29:58.206Z,99.99
2017-08-09T01:31:07.092Z,99.99
2017-08-09T01:32:16.296Z,99.99
2017-08-09T01:33:25.660Z,99.99
2017-08-09T01:34:35.190Z,99.99
2017-08-09T01:35:44.400Z,99.99
2017-08-09T01:36:53.603Z,99.99
2017-08-09T01:38:03.453Z,99.99
2017-08-09T01:39:12.928Z,99.99
2017-08-09T01:40:22.457Z,99.99
2017-08-09T01:41:31.985Z,99.99
2017-08-09T01:42:40.866Z,99.99
2017-08-09T01:43:50.398Z,99.99
2017-08-09T01:45:00.405Z,99.99
2017-08-09T01:46:09.622Z,99.99
2017-08-09T01:47:19.477Z,99.99
2017-08-09T01:48:28.685Z,99.99
2017-08-09T01:49:37.890Z,99.99
2017-08-09T01:50:46.978Z,99.99
2017-08-09T01:51:56.194Z,99.99
2017-08-09T01:53:05.075Z,99.99
2017-08-09T01:54:13.958Z,99.99
2017-08-09T01:55:23.167Z,99.99
2017-08-09T01:56:32.368Z,99.99
2017-08-09T01:57:41.586Z,99.99
2017-08-09T01:58:50.469Z,99.99
2017-08-09T02:00:00.326Z,99.99
2017-08-09T02:01:10.501Z,99.99
2017-08-09T02:02:19.858Z,99.99
2017-08-09T02:03:29.711Z,99.99
2017-08-09T02:04:38.916Z,99.99
2017-08-09T02:05:48.448Z,99.99
2017-08-09T02:06:57.334Z,99.99
2017-08-09T02:08:06.367Z,99.99
2017-08-09T02:09:15.574Z,99.99
2017-08-09T02:10:24.789Z,99.99
2017-08-09T02:11:33.992Z,99.99
2017-08-09T02:12:43.526Z,99.99
2017-08-09T02:13:52.840Z,99.99
2017-08-09T02:15:02.369Z,99.99
2017-08-09T02:16:11.252Z,99.99
2017-08-09T02:17:20.783Z,99.99
2017-08-09T02:18:29.661Z,99.99
2017-08-09T02:19:38.965Z,99.99
2017-08-09T02:20:48.511Z,99.99
2017-08-09T02:21:58.685Z,99.99
2017-08-09T02:23:08.214Z,99.99
2017-08-09T02:24:17.752Z,99.99
2017-08-09T02:25:27.754Z,99.99
2017-08-09T02:26:36.634Z,99.99
2017-08-09T02:27:45.842Z,99.99
2017-08-09T02:28:55.385Z,99.99
2017-08-09T02:30:05.245Z,99.99
2017-08-09T02:31:14.232Z,99.99
2017-08-09T02:32:23.438Z,99.99
2017-08-09T02:33:33.296Z,99.99
2017-08-09T02:34:42.521Z,99.99
2017-08-09T02:35:51.734Z,99.99
2017-08-09T02:37:01.742Z,99.99
2017-08-09T02:38:10.949Z,99.99
2017-08-09T02:39:19.833Z,99.99
2017-08-09T02:40:29.368Z,99.99
2017-08-09T02:41:38.902Z,99.99
2017-08-09T02:42:48.583Z,99.99
2017-08-09T02:43:58.758Z,99.99
2017-08-09T02:45:08.614Z,99.99
2017-08-09T02:46:18.814Z,99.99
2017-08-09T02:47:28.665Z,99.99
2017-08-09T02:48:38.253Z,99.99
2017-08-09T02:49:47.792Z,99.99
2017-08-09T02:50:57.316Z,99.99
2017-08-09T02:52:07.178Z,99.99
2017-08-09T02:53:16.398Z,99.99
2017-08-09T02:54:26.682Z,99.99
2017-08-09T02:55:35.564Z,99.99
2017-08-09T02:56:44.771Z,99.99
2017-08-09T02:57:54.946Z,99.99
2017-08-09T02:59:04.472Z,99.99
2017-08-09T03:00:13.414Z,99.99
2017-08-09T03:01:22.941Z,99.99
2017-08-09T03:02:32.147Z,99.99
2017-08-09T03:03:41.679Z,99.99
2017-08-09T03:04:51.209Z,99.99
2017-08-09T03:06:00.794Z,99.99
2017-08-09T03:07:10.329Z,99.99
2017-08-09T03:08:20.208Z,99.99
2017-08-09T03:09:29.414Z,99.99
2017-08-09T03:10:38.292Z,99.99
2017-08-09T03:11:47.754Z,99.99
2017-08-09T03:12:57.626Z,99.99
2017-08-09T03:14:07.484Z,99.99
2017-08-09T03:15:16.367Z,99.99
2017-08-09T03:16:25.574Z,99.99
2017-08-09T03:17:34.838Z,99.99
2017-08-09T03:18:44.039Z,99.99
2017-08-09T03:19:53.569Z,99.99
2017-08-09T03:21:02.797Z,99.99
2017-08-09T03:22:12.326Z,99.99
2017-08-09T03:23:21.705Z,99.99
2017-08-09T03:24:31.558Z,99.99
2017-08-09T03:25:40.760Z,99.99
2017-08-09T03:26:50.289Z,99.99
2017-08-09T03:28:00.157Z,99.99
2017-08-09T03:29:09.187Z,99.99
2017-08-09T03:30:18.719Z,99.99
2017-08-09T03:31:28.585Z,99.99
2017-08-09T03:32:37.467Z,99.99
2017-08-09T03:33:46.350Z,99.99
2017-08-09T03:34:56.206Z,99.99
2017-08-09T03:36:05.740Z,99.99
2017-08-09T03:37:15.597Z,99.99
2017-08-09T03:38:25.137Z,99.99
2017-08-09T03:39:34.341Z,99.99
2017-08-09T03:40:43.966Z,99.99
2017-08-09T03:41:53.490Z,99.99
2017-08-09T03:43:03.347Z,99.99
2017-08-09T03:44:12.569Z,99.99
2017-08-09T03:45:21.773Z,99.99
2017-08-09T03:46:31.125Z,99.99
2017-08-09T03:47:40.654Z,99.99
2017-08-09T03:48:50.186Z,99.99
2017-08-09T03:49:59.715Z,99.99
2017-08-09T03:51:09.254Z,99.99
2017-08-09T03:52:19.082Z,99.99
2017-08-09T03:53:28.295Z,99.99
2017-08-09T03:54:37.828Z,99.99
2017-08-09T03:55:47.360Z,99.99
2017-08-09T03:56:56.894Z,99.99
2017-08-09T03:58:06.356Z,99.99
2017-08-09T03:59:15.241Z,99.99
2017-08-09T04:00:24.766Z,99.99
2017-08-09T04:01:34.619Z,99.99
2017-08-09T04:02:43.829Z,99.99
2017-08-09T04:03:53.828Z,99.99
2017-08-09T04:05:03.030Z,99.99
2017-08-09T04:06:12.567Z,99.99
2017-08-09T04:07:21.779Z,99.99
2017-08-09T04:08:30.984Z,99.99
2017-08-09T04:09:40.492Z,99.99
2017-08-09T04:10:49.696Z,99.99
2017-08-09T04:11:59.221Z,99.99
2017-08-09T04:13:08.426Z,99.99
2017-08-09T04:14:18.287Z,99.99
2017-08-09T04:15:27.964Z,99.99
2017-08-09T04:16:36.858Z,99.99
2017-08-09T04:17:46.387Z,99.99
2017-08-09T04:18:55.268Z,99.99
2017-08-09T04:20:04.794Z,99.99
2017-08-09T04:21:14.420Z,99.99
2017-08-09T04:22:23.625Z,99.99
2017-08-09T04:23:33.478Z,99.99
2017-08-09T04:24:42.690Z,99.99
2017-08-09T04:25:52.218Z,99.99
2017-08-09T04:27:01.851Z,99.99
2017-08-09T04:28:11.062Z,99.99
2017-08-09T04:29:20.268Z,99.99
2017-08-09T04:30:29.798Z,99.99
2017-08-09T04:31:39.003Z,99.99
2017-08-09T04:32:49.331Z,99.99
2017-08-09T04:33:58.222Z,99.99
2017-08-09T04:35:08.086Z,99.99
2017-08-09T04:36:17.294Z,99.99
2017-08-09T04:37:27.146Z,99.99
2017-08-09T04:38:36.126Z,99.99
2017-08-09T04:39:45.331Z,99.99
2017-08-09T04:40:54.215Z,99.99
2017-08-09T04:42:03.097Z,99.99
2017-08-09T04:43:12.630Z,99.99
2017-08-09T04:44:22.159Z,99.99
2017-08-09T04:45:32.007Z,99.99
2017-08-09T04:46:41.548Z,99.99
2017-08-09T04:47:50.432Z,99.99
2017-08-09T04:48:59.317Z,99.99
2017-08-09T04:50:08.896Z,99.99
2017-08-09T04:51:18.104Z,99.99
2017-08-09T04:52:27.637Z,99.99
2017-08-09T04:53:36.516Z,99.99
2017-08-09T04:54:45.721Z,99.99
2017-08-09T04:55:55.302Z,99.99
2017-08-09T04:57:04.515Z,99.99
2017-08-09T04:58:14.368Z,99.99
2017-08-09T04:59:23.577Z,99.99
2017-08-09T05:00:32.789Z,99.99
2017-08-09T05:01:42.792Z,99.99
2017-08-09T05:02:51.999Z,99.99
2017-08-09T05:04:01.527Z,99.99
2017-08-09T05:05:10.761Z,99.99
2017-08-09T05:06:20.290Z,99.99
2017-08-09T05:07:29.653Z,99.99
2017-08-09T05:08:38.860Z,99.99
2017-08-09T05:09:48.075Z,99.99
2017-08-09T05:10:57.283Z,99.99
2017-08-09T05:12:06.490Z,99.99
2017-08-09T05:13:15.749Z,99.99
2017-08-09T05:14:24.631Z,99.99
2017-08-09T05:15:33.840Z,99.99
2017-08-09T05:16:43.045Z,99.99
2017-08-09T05:17:52.251Z,99.99
2017-08-09T05:19:01.610Z,99.99
2017-08-09T05:20:11.138Z,99.99
2017-08-09T05:21:20.671Z,99.99
2017-08-09T05:22:30.201Z,99.99
2017-08-09T05:23:40.056Z,99.99
2017-08-09T05:24:49.360Z,99.99
2017-08-09T05:25:58.897Z,99.99
2017-08-09T05:27:08.435Z,99.99
2017-08-09T05:28:17.638Z,99.99
2017-08-09T05:29:27.817Z,99.99
2017-08-09T05:30:37.557Z,99.99
2017-08-09T05:31:46.446Z,99.99
2017-08-09T05:32:55.329Z,99.99
2017-08-09T05:34:04.536Z,99.99
2017-08-09T05:35:14.167Z,99.99
2017-08-09T05:36:23.700Z,99.99
2017-08-09T05:37:33.563Z,99.99
2017-08-09T05:38:43.099Z,99.99
2017-08-09T05:39:51.983Z,99.99
2017-08-09T05:41:01.522Z,99.99
2017-08-09T05:42:10.735Z,99.99
2017-08-09T05:43:19.942Z,99.99
2017-08-09T05:44:29.180Z,99.99
2017-08-09T05:45:38.389Z,99.99
2017-08-09T05:46:47.932Z,99.99
2017-08-09T05:47:58.107Z,99.99
2017-08-09T05:49:06.990Z,99.99
2017-08-09T05:50:15.877Z,99.99
2017-08-09T05:51:25.409Z,99.99
2017-08-09T05:52:34.617Z,99.99
2017-08-09T05:53:43.821Z,99.99
2017-08-09T05:54:53.676Z,99.99
2017-08-09T05:56:03.262Z,99.99
2017-08-09T05:57:12.476Z,99.99
2017-08-09T05:58:22.344Z,99.99
2017-08-09T05:59:31.648Z,99.99
2017-08-09T06:00:40.886Z,99.99
2017-08-09T06:01:50.199Z,99.99
2017-08-09T06:02:59.726Z,99.99
2017-08-09T06:04:09.298Z,99.99
2017-08-09T06:05:18.830Z,99.99
2017-08-09T06:06:28.428Z,99.99
2017-08-09T06:07:38.111Z,99.99
2017-08-09T06:08:47.643Z,99.99
2017-08-09T06:09:56.858Z,99.99
2017-08-09T06:11:06.068Z,99.99
2017-08-09T06:12:15.293Z,99.99
2017-08-09T06:13:24.801Z,99.99
2017-08-09T06:14:34.335Z,99.99
2017-08-09T06:15:43.542Z,99.99
2017-08-09T06:16:52.424Z,99.99
2017-08-09T06:18:01.956Z,99.99
2017-08-09T06:19:11.665Z,99.99
2017-08-09T06:20:20.875Z,99.99
2017-08-09T06:21:30.726Z,99.99
2017-08-09T06:22:40.271Z,99.99
2017-08-09T06:23:49.155Z,99.99
2017-08-09T06:24:58.517Z,99.99
2017-08-09T06:26:08.063Z,99.99
2017-08-09T06:27:17.924Z,99.99
2017-08-09T06:28:27.851Z,99.99
2017-08-09T06:29:36.738Z,99.99
2017-08-09T06:30:46.267Z,99.99
2017-08-09T06:31:56.123Z,99.99
2017-08-09T06:33:05.333Z,99.99
2017-08-09T06:34:15.214Z,99.99
2017-08-09T06:35:24.422Z,99.99
2017-08-09T06:36:34.104Z,99.99
2017-08-09T06:37:42.990Z,99.99
2017-08-09T06:38:52.199Z,99.99
2017-08-09T06:40:01.741Z,99.99
2017-08-09T06:41:11.917Z,99.99
2017-08-09T06:42:21.431Z,99.99
2017-08-09T06:43:31.609Z,99.99
2017-08-09T06:44:41.137Z,99.99
2017-08-09T06:45:50.349Z,99.99
2017-08-09T06:46:59.883Z,99.99
2017-08-09T06:48:10.263Z,99.99
2017-08-09T06:49:20.114Z,99.99
2017-08-09T06:50:29.983Z,99.99
2017-08-09T06:51:38.879Z,99.99
2017-08-09T06:52:48.104Z,99.99
2017-08-09T06:53:57.688Z,99.99
2017-08-09T06:55:07.875Z,99.99
2017-08-09T06:56:16.758Z,99.99
2017-08-09T06:57:25.645Z,99.99
2017-08-09T06:58:35.188Z,99.99
2017-08-09T06:59:44.501Z,99.99
2017-08-09T07:00:54.037Z,99.99
2017-08-09T07:02:03.252Z,99.99
2017-08-09T07:03:12.148Z,99.99
2017-08-09T07:04:21.082Z,99.99
2017-08-09T07:05:30.968Z,99.99
2017-08-09T07:06:40.108Z,99.99
2017-08-09T07:07:49.531Z,99.99
2017-08-09T07:08:58.584Z,99.99
2017-08-09T07:10:08.643Z,99.99
2017-08-09T07:11:18.844Z,99.99
2017-08-09T07:12:28.254Z,99.99
2017-08-09T07:13:37.965Z,99.99
2017-08-09T07:14:47.308Z,99.99
2017-08-09T07:15:57.290Z,99.99
2017-08-09T07:17:07.368Z,99.99
2017-08-09T07:18:16.255Z,99.99
2017-08-09T07:19:25.517Z,99.99
2017-08-09T07:20:35.083Z,99.99
2017-08-09T07:21:44.353Z,99.99
2017-08-09T07:22:54.010Z,99.99
2017-08-09T07:24:03.650Z,99.99
2017-08-09T07:25:13.327Z,99.99
2017-08-09T07:26:22.948Z,99.99
2017-08-09T07:27:32.537Z,99.99
2017-08-09T07:28:42.002Z,99.99
2017-08-09T07:29:51.429Z,99.99
2017-08-09T07:31:01.221Z,99.99
2017-08-09T07:32:10.840Z,99.99
2017-08-09T07:33:20.127Z,99.99
2017-08-09T07:34:29.875Z,99.99
2017-08-09T07:35:39.769Z,99.99
2017-08-09T07:36:49.856Z,99.99
2017-08-09T07:37:59.314Z,99.99
2017-08-09T07:39:08.680Z,99.99
2017-08-09T07:40:18.871Z,99.99
2017-08-09T07:41:28.271Z,99.99
2017-08-09T07:42:37.600Z,99.99
2017-08-09T07:43:46.909Z,99.99
2017-08-09T07:44:56.949Z,99.99
2017-08-09T07:46:06.947Z,99.99
2017-08-09T07:47:16.851Z,99.99
2017-08-09T07:48:26.393Z,99.99
2017-08-09T07:49:35.634Z,99.99
2017-08-09T07:50:44.851Z,99.99
2017-08-09T07:51:54.218Z,99.99
2017-08-09T07:53:03.769Z,99.99
2017-08-09T07:54:13.326Z,99.99
2017-08-09T07:55:23.586Z,99.99
2017-08-09T07:56:33.780Z,99.99
2017-08-09T07:57:43.464Z,99.99
2017-08-09T07:58:52.684Z,99.99
2017-08-09T08:00:02.226Z,99.99
2017-08-09T08:01:12.090Z,99.99
2017-08-09T08:02:21.303Z,99.99
2017-08-09T08:03:30.987Z,99.99
2017-08-09T08:04:40.536Z,99.99
2017-08-09T08:05:49.419Z,99.99
2017-08-09T08:06:58.630Z,99.99
2017-08-09T08:08:07.851Z,99.99
2017-08-09T08:09:17.218Z,99.99
2017-08-09T08:10:27.207Z,99.99
2017-08-09T08:11:36.175Z,99.99
2017-08-09T08:12:45.418Z,99.99
2017-08-09T08:13:54.679Z,99.99
2017-08-09T08:15:03.735Z,99.99
2017-08-09T08:16:13.706Z,99.99
2017-08-09T08:17:22.945Z,99.99
2017-08-09T08:18:32.163Z,99.99
2017-08-09T08:19:41.370Z,99.99
2017-08-09T08:20:51.207Z,99.99
2017-08-09T08:22:00.419Z,99.99
2017-08-09T08:23:09.963Z,99.99
2017-08-09T08:24:19.548Z,99.99
2017-08-09T08:25:29.084Z,99.99
2017-08-09T08:26:38.077Z,99.99
2017-08-09T08:27:47.295Z,99.99
2017-08-09T08:28:56.836Z,99.99
2017-08-09T08:30:06.425Z,99.99
2017-08-09T08:31:16.631Z,99.99
2017-08-09T08:32:25.905Z,99.99
2017-08-09T08:33:35.190Z,99.99
2017-08-09T08:34:44.082Z,99.99
2017-08-09T08:35:53.622Z,99.99
2017-08-09T08:37:02.830Z,99.99
2017-08-09T08:38:12.746Z,99.99
2017-08-09T08:39:22.630Z,99.99
2017-08-09T08:40:31.841Z,99.99
2017-08-09T08:41:41.481Z,99.99
2017-08-09T08:42:51.058Z,99.99
2017-08-09T08:44:01.296Z,99.99
2017-08-09T08:45:10.891Z,99.99
2017-08-09T08:46:20.531Z,99.99
2017-08-09T08:47:30.126Z,99.99
2017-08-09T08:48:39.370Z,99.99
2017-08-09T08:49:48.949Z,99.99
2017-08-09T08:50:58.835Z,99.99
2017-08-09T08:52:08.719Z,99.99
2017-08-09T08:53:18.282Z,99.99
2017-08-09T08:54:27.215Z,99.99
2017-08-09T08:55:36.954Z,99.99
2017-08-09T08:56:46.175Z,99.99
2017-08-09T08:57:55.394Z,99.99
2017-08-09T08:59:04.933Z,99.99
2017-08-09T09:00:13.830Z,99.99
2017-08-09T09:01:23.533Z,99.54
2017-08-09T09:02:33.153Z,99.44
2017-08-09T09:03:42.363Z,98.19
2017-08-09T09:04:51.592Z,98.39
2017-08-09T09:06:00.894Z,98.19
2017-08-09T09:07:10.413Z,98.39
2017-08-09T09:08:20.326Z,99.54
2017-08-09T09:09:29.297Z,99.35
2017-08-09T09:10:39.631Z,99.25
2017-08-09T09:11:48.940Z,98.58
2017-08-09T09:12:58.984Z,98.58
2017-08-09T09:14:08.633Z,99.35
2017-08-09T09:15:18.577Z,99.63
2017-08-09T09:16:28.122Z,99.99
2017-08-09T09:17:38.006Z,99.99
2017-08-09T09:18:47.644Z,99.99
2017-08-09T09:19:56.854Z,99.99
2017-08-09T09:21:06.446Z,99.99
2017-08-09T09:22:15.990Z,99.99
2017-08-09T09:23:25.678Z,99.87
2017-08-09T09:24:35.698Z,99.99
2017-08-09T09:25:44.609Z,99.99
2017-08-09T09:26:54.141Z,99.99
2017-08-09T09:28:04.000Z,99.99
2017-08-09T09:29:13.209Z,99.99
2017-08-09T09:30:22.150Z,99.99
2017-08-09T09:31:31.684Z,99.01
2017-08-09T09:32:40.569Z,99.2
2017-08-09T09:33:50.106Z,98.43
2017-08-09T09:34:59.664Z,98.68
2017-08-09T09:36:08.710Z,98.72
2017-08-09T09:37:18.244Z,97.96
2017-08-09T09:38:27.454Z,96.8
2017-08-09T09:39:36.356Z,97.57
2017-08-09T09:40:46.222Z,97.66
2017-08-09T09:41:56.051Z,97.52
2017-08-09T09:43:05.280Z,97.33
2017-08-09T09:44:14.492Z,98.1
2017-08-09T09:45:23.704Z,96.66
2017-08-09T09:46:33.572Z,97.52
2017-08-09T09:47:43.483Z,96.66
2017-08-09T09:48:52.695Z,97.04
2017-08-09T09:50:02.233Z,98.77
2017-08-09T09:51:12.088Z,96.85
2017-08-09T09:52:20.983Z,96.75
2017-08-09T09:53:30.249Z,96.56
2017-08-09T09:54:39.781Z,97.71
2017-08-09T09:55:48.989Z,95.84
2017-08-09T09:56:58.220Z,95.65
2017-08-09T09:58:07.764Z,95.17
2017-08-09T09:59:17.137Z,95.65
2017-08-09T10:00:26.706Z,95.84
2017-08-09T10:01:35.599Z,96.9
2017-08-09T10:02:45.159Z,96.7
2017-08-09T10:03:54.689Z,94.83
2017-08-09T10:05:03.732Z,94.54
2017-08-09T10:06:13.595Z,93.77
2017-08-09T10:07:22.806Z,93.38
2017-08-09T10:08:32.345Z,93.48
2017-08-09T10:09:41.558Z,94.06
2017-08-09T10:10:51.193Z,94.73
2017-08-09T10:12:00.728Z,93.38
2017-08-09T10:13:10.589Z,94.54
2017-08-09T10:14:19.805Z,93.96
2017-08-09T10:15:29.342Z,92.43
2017-08-09T10:16:38.756Z,91.94
2017-08-09T10:17:47.981Z,92.38
2017-08-09T10:18:57.837Z,92.67
2017-08-09T10:20:07.048Z,92.76
2017-08-09T10:21:16.585Z,93.05
2017-08-09T10:22:26.323Z,93.24
2017-08-09T10:23:35.544Z,92.52
2017-08-09T10:24:45.411Z,92.71
2017-08-09T10:25:54.636Z,92.04
2017-08-09T10:27:03.884Z,90.31
2017-08-09T10:28:13.142Z,90.12
2017-08-09T10:29:23.004Z,90.41
2017-08-09T10:30:32.542Z,89.92
2017-08-09T10:31:41.445Z,91.27
2017-08-09T10:32:50.989Z,90.41
2017-08-09T10:34:00.028Z,88.87
2017-08-09T10:35:09.588Z,89.2
2017-08-09T10:36:18.799Z,88.81
2017-08-09T10:37:27.689Z,87.71
2017-08-09T10:38:36.900Z,87.04
2017-08-09T10:39:46.591Z,87.56
2017-08-09T10:40:56.456Z,86.99
2017-08-09T10:42:05.992Z,87.85
2017-08-09T10:43:15.854Z,87.18
2017-08-09T10:44:24.740Z,87.66
2017-08-09T10:45:34.333Z,88.43
2017-08-09T10:46:43.872Z,86.79
2017-08-09T10:47:52.757Z,86.31
2017-08-09T10:49:01.651Z,87.56
2017-08-09T10:50:11.192Z,88.14
2017-08-09T10:51:20.454Z,87.08
2017-08-09T10:52:30.315Z,87.18
2017-08-09T10:53:40.172Z,87.56
2017-08-09T10:54:49.709Z,86.83
2017-08-09T10:55:59.248Z,86.79
2017-08-09T10:57:09.230Z,86.93
2017-08-09T10:58:18.444Z,86.55
2017-08-09T10:59:27.987Z,87.03
2017-08-09T11:00:37.201Z,87.41
2017-08-09T11:01:46.734Z,86.65
2017-08-09T11:02:56.745Z,86.55
2017-08-09T11:04:06.607Z,86.26
2017-08-09T11:05:16.147Z,86.02
2017-08-09T11:06:25.683Z,84.87
2017-08-09T11:07:34.903Z,84.1
2017-08-09T11:08:44.534Z,84.58
2017-08-09T11:09:53.762Z,84.39
2017-08-09T11:11:03.294Z,83.52
2017-08-09T11:12:12.512Z,84
2017-08-09T11:13:21.731Z,82.65
2017-08-09T11:14:31.462Z,81.4
2017-08-09T11:15:40.994Z,82.17
2017-08-09T11:16:50.529Z,83.04
2017-08-09T11:17:59.416Z,83.04
2017-08-09T11:19:08.307Z,83.23
2017-08-09T11:20:17.344Z,84
2017-08-09T11:21:26.231Z,84.67
2017-08-09T11:22:35.444Z,83.91
2017-08-09T11:23:45.303Z,83.42
2017-08-09T11:24:54.836Z,83.14
2017-08-09T11:26:04.799Z,83.14
2017-08-09T11:27:13.689Z,83.33
2017-08-09T11:28:22.899Z,83.23
2017-08-09T11:29:32.117Z,83.14
2017-08-09T11:30:41.666Z,83.62
2017-08-09T11:31:50.925Z,81.21
2017-08-09T11:33:00.458Z,82.85
2017-08-09T11:34:09.360Z,83.18
2017-08-09T11:35:18.571Z,82.27
2017-08-09T11:36:28.438Z,82.21
2017-08-09T11:37:37.484Z,81.54
2017-08-09T11:38:46.378Z,81.88
2017-08-09T11:39:55.912Z,81.45
2017-08-09T11:41:05.123Z,81.98
2017-08-09T11:42:14.980Z,82.41
2017-08-09T11:43:24.190Z,81.16
2017-08-09T11:44:33.402Z,80.87
2017-08-09T11:45:42.295Z,82.21
2017-08-09T11:46:51.829Z,80.58
2017-08-09T11:48:00.723Z,80
2017-08-09T11:49:09.613Z,79.71
2017-08-09T11:50:18.829Z,78.94
2017-08-09T11:51:28.368Z,78.65
2017-08-09T11:52:37.586Z,79.71
2017-08-09T11:53:47.448Z,80.1
2017-08-09T11:54:57.893Z,81.73
2017-08-09T11:56:07.107Z,80.58
2017-08-09T11:57:16.644Z,80.96
2017-08-09T11:58:25.853Z,81.06
2017-08-09T11:59:35.074Z,81.16
2017-08-09T12:00:44.389Z,80.04
2017-08-09T12:01:53.927Z,80.23
2017-08-09T12:03:03.805Z,80.62
2017-08-09T12:04:13.661Z,80.52
2017-08-09T12:05:23.203Z,79.27
2017-08-09T12:06:32.414Z,79.94
2017-08-09T12:07:41.642Z,81.62
2017-08-09T12:08:51.183Z,79.31
2017-08-09T12:10:00.072Z,80.14
2017-08-09T12:11:09.657Z,79.98
2017-08-09T12:12:19.213Z,78.83
2017-08-09T12:13:28.461Z,78.34
2017-08-09T12:14:37.998Z,77.76
2017-08-09T12:15:47.862Z,77.19
2017-08-09T12:16:57.720Z,77.48
2017-08-09T12:18:07.316Z,77.86
2017-08-09T12:19:16.877Z,78.25
2017-08-09T12:20:26.749Z,78.63
2017-08-09T12:21:35.967Z,77.67
2017-08-09T12:22:45.512Z,75.55
2017-08-09T12:23:55.572Z,75.2
2017-08-09T12:25:05.436Z,75.88
2017-08-09T12:26:14.658Z,75.88
2017-08-09T12:27:24.866Z,74.72
2017-08-09T12:28:34.735Z,75.01
2017-08-09T12:29:44.280Z,75.68
2017-08-09T12:30:53.822Z,78.29
2017-08-09T12:32:03.364Z,75.59
2017-08-09T12:33:13.225Z,74.91
2017-08-09T12:34:23.089Z,75.88
2017-08-09T12:35:33.004Z,75.49
2017-08-09T12:36:42.223Z,76.26
2017-08-09T12:37:51.436Z,76.75
2017-08-09T12:39:01.300Z,76.93
2017-08-09T12:40:11.807Z,76.93
2017-08-09T12:41:21.500Z,76.75
2017-08-09T12:42:31.044Z,76.93
2017-08-09T12:43:40.599Z,75.68
2017-08-09T12:44:50.464Z,75.3
2017-08-09T12:46:00.003Z,74.37
2017-08-09T12:47:10.289Z,74.18
2017-08-09T12:48:19.899Z,74.37
2017-08-09T12:49:29.115Z,73.6
2017-08-09T12:50:38.694Z,74.57
2017-08-09T12:51:47.912Z,74.37
2017-08-09T12:52:56.865Z,74.31
2017-08-09T12:54:06.411Z,72.96
2017-08-09T12:55:15.313Z,73.25
2017-08-09T12:56:25.174Z,74.21
2017-08-09T12:57:34.746Z,74.79
2017-08-09T12:58:44.123Z,72.96
2017-08-09T12:59:53.668Z,73.19
2017-08-09T13:01:02.903Z,71.74
2017-08-09T13:02:11.829Z,71.55
2017-08-09T13:03:21.700Z,71.48
2017-08-09T13:04:31.188Z,72.74
2017-08-09T13:05:40.420Z,72.45
2017-08-09T13:06:49.350Z,72.16
2017-08-09T13:07:59.227Z,71.78
2017-08-09T13:09:08.819Z,71.1
2017-08-09T13:10:18.983Z,70.81
2017-08-09T13:11:28.533Z,71
2017-08-09T13:12:37.433Z,70.32
2017-08-09T13:13:46.663Z,70.87
2017-08-09T13:14:55.570Z,70.81
2017-08-09T13:16:05.074Z,71.74
2017-08-09T13:17:14.337Z,71.64
2017-08-09T13:18:23.569Z,72.52
2017-08-09T13:19:33.565Z,72.09
2017-08-09T13:20:42.849Z,71.61
2017-08-09T13:23:31.400Z,73.38
2017-08-09T13:24:40.628Z,71.84
2017-08-09T13:25:49.955Z,71.55
2017-08-09T13:26:59.499Z,71.55
2017-08-09T13:28:09.051Z,70.14
2017-08-09T13:29:18.602Z,70.42
2017-08-09T13:30:27.507Z,69.68
2017-08-09T13:31:36.751Z,70.17
2017-08-09T13:32:46.630Z,70.36
2017-08-09T13:33:56.179Z,70.17
2017-08-09T13:35:05.783Z,70.4
2017-08-09T13:36:15.330Z,68.75
2017-08-09T13:37:24.723Z,68.04
2017-08-09T13:38:34.274Z,68.43
2017-08-09T13:39:43.177Z,68.04
2017-08-09T13:40:52.085Z,68.04
2017-08-09T13:42:01.631Z,67.27
2017-08-09T13:43:11.855Z,68.04
2017-08-09T13:44:21.073Z,67.08
2017-08-09T13:45:30.943Z,66.69
2017-08-09T13:46:40.483Z,67.27
2017-08-09T13:47:49.379Z,66.78
2017-08-09T13:48:58.600Z,67.75
2017-08-09T13:50:08.173Z,67.27
2017-08-09T13:51:17.733Z,68.62
2017-08-09T13:52:27.000Z,70.46
2017-08-09T13:53:36.658Z,68.91
2017-08-09T13:54:45.565Z,69.3
2017-08-09T13:55:54.787Z,69.98
2017-08-09T13:57:04.331Z,69.1
2017-08-09T13:58:14.350Z,67.3
2017-08-09T13:59:23.567Z,67.88
2017-08-09T14:00:32.791Z,68.27
2017-08-09T14:01:42.016Z,66.43
2017-08-09T14:02:51.274Z,67.4
2017-08-09T14:04:00.697Z,67.21
2017-08-09T14:05:10.246Z,67.56
2017-08-09T14:06:19.149Z,66.3
2017-08-09T14:07:28.397Z,66.01
2017-08-09T14:08:37.657Z,66.05
2017-08-09T14:09:47.077Z,66.33
2017-08-09T14:10:56.943Z,66.98
2017-08-09T14:12:06.806Z,66.72
2017-08-09T14:13:16.024Z,66.2
2017-08-09T14:14:25.242Z,65.47
2017-08-09T14:15:34.612Z,64.72
2017-08-09T14:16:43.832Z,64.72
2017-08-09T14:17:52.736Z,65.79
2017-08-09T14:19:02.297Z,65.3
2017-08-09T14:20:11.870Z,62.43
2017-08-09T14:21:21.628Z,62.43
2017-08-09T14:22:31.495Z,63.79
2017-08-09T14:23:40.393Z,62.24
2017-08-09T14:24:50.271Z,61.98
2017-08-09T14:25:59.817Z,62.17
2017-08-09T14:27:09.190Z,60.43
2017-08-09T14:28:18.740Z,60.55
2017-08-09T14:29:28.306Z,59.1
2017-08-09T14:30:37.860Z,60.46
2017-08-09T14:31:46.773Z,60.39
2017-08-09T14:32:55.828Z,58.45
2017-08-09T14:34:05.697Z,57.8
2017-08-09T14:35:14.926Z,57.12
2017-08-09T14:36:24.156Z,57.8
2017-08-09T14:37:33.707Z,57.9
2017-08-09T14:38:43.319Z,55.96
2017-08-09T14:39:52.542Z,56.93
2017-08-09T14:41:02.091Z,56.45
2017-08-09T14:42:11.639Z,58
2017-08-09T14:43:20.865Z,56.64
2017-08-09T14:44:30.170Z,56.45
2017-08-09T14:45:39.439Z,56.83
2017-08-09T14:46:48.731Z,57.12
2017-08-09T14:47:58.221Z,55.79
2017-08-09T14:49:08.123Z,55.11
2017-08-09T14:50:17.553Z,55.79
2017-08-09T14:51:26.815Z,54.75
2017-08-09T14:52:36.341Z,53.59
2017-08-09T14:53:45.893Z,53.88
2017-08-09T14:54:55.120Z,53.71
2017-08-09T14:56:05.341Z,52.74
2017-08-09T14:57:15.216Z,54.1
2017-08-09T14:58:24.441Z,53.61